createdAt,value
2022-11-07T00:03:39.049Z,6.62
2022-11-07T00:09:39.403Z,6.63
2022-11-07T00:12:27.847Z,6.64
2022-11-07T00:30:55.568Z,6.68
2022-11-07T00:33:38.404Z,6.71
2022-11-07T01:08:19.004Z,6.67
2022-11-07T01:11:20.404Z,6.72
2022-11-07T01:14:34.616Z,6.68
2022-11-07T01:18:05.432Z,6.70
2022-11-07T01:34:37.045Z,6.70
2022-11-07T01:51:24.691Z,6.73
2022-11-07T02:05:10.128Z,6.72
2022-11-07T02:30:29.171Z,6.73
2022-11-07T02:47:51.432Z,6.76
2022-11-07T03:16:18.289Z,6.93
2022-11-07T03:46:10.241Z,6.98
2022-11-07T03:54:16.978Z,7.06
2022-11-07T03:57:38.421Z,7.13
2022-11-07T04:22:41.453Z,7.27
2022-11-07T04:25:08.662Z,7.53
2022-11-07T04:27:44.311Z,7.66
2022-11-07T04:30:21.945Z,7.64
2022-11-07T04:32:51.385Z,7.55
2022-11-07T04:35:19.556Z,7.61
2022-11-07T04:37:47.251Z,7.58
2022-11-07T04:40:14.346Z,7.61
2022-11-07T04:42:47.354Z,7.62
2022-11-07T04:45:30.932Z,7.63
2022-11-07T04:48:04.270Z,7.61
2022-11-07T04:50:31.140Z,7.57
2022-11-07T04:56:44.261Z,7.70
2022-11-07T05:04:16.777Z,7.66
2022-11-07T05:06:49.394Z,7.70
2022-11-07T05:09:18.162Z,7.70
2022-11-07T05:11:46.173Z,7.73
2022-11-07T05:14:13.040Z,7.76
2022-11-07T05:16:40.859Z,7.75
2022-11-07T05:19:07.540Z,7.78
2022-11-07T05:21:34.248Z,7.77
2022-11-07T05:24:01.077Z,7.78
2022-11-07T05:26:33.943Z,7.77
2022-11-07T05:29:10.004Z,7.77
2022-11-07T05:31:36.693Z,7.71
2022-11-07T05:34:08.712Z,7.75
2022-11-07T05:36:39.643Z,7.78
2022-11-07T05:39:06.439Z,7.78
2022-11-07T05:41:35.615Z,7.81
2022-11-07T05:44:12.111Z,7.82
2022-11-07T05:46:47.846Z,7.79
2022-11-07T05:49:22.101Z,7.82
2022-11-07T05:51:48.856Z,7.82
2022-11-07T05:54:15.631Z,7.85
2022-11-07T05:56:44.191Z,7.87
2022-11-07T05:59:25.907Z,7.85
2022-11-07T06:04:46.288Z,7.81
2022-11-07T06:07:16.144Z,7.85
2022-11-07T06:09:42.896Z,7.87
2022-11-07T06:12:12.442Z,7.89
2022-11-07T06:14:45.171Z,7.87
2022-11-07T06:17:15.788Z,7.91
2022-11-07T06:19:42.610Z,7.91
2022-11-07T06:22:19.928Z,7.84
2022-11-07T06:27:43.849Z,7.87
2022-11-07T06:30:11.117Z,7.89
2022-11-07T06:32:39.482Z,7.91
2022-11-07T06:35:06.594Z,7.92
2022-11-07T06:37:35.834Z,7.95
2022-11-07T06:40:06.250Z,7.95
2022-11-07T06:42:35.643Z,7.95
2022-11-07T06:51:46.876Z,7.98
2022-11-07T06:54:24.028Z,8.01
2022-11-07T06:56:50.936Z,7.99
2022-11-07T06:59:25.723Z,7.99
2022-11-07T07:02:02.741Z,8.00
2022-11-07T07:04:30.009Z,7.99
2022-11-07T07:07:02.268Z,8.04
2022-11-07T07:13:42.809Z,8.05
2022-11-07T07:36:27.705Z,8.21
2022-11-07T07:39:00.323Z,8.19
2022-11-07T07:41:36.263Z,8.27
2022-11-07T07:44:08.403Z,8.29
2022-11-07T07:46:38.344Z,8.29
2022-11-07T07:49:14.321Z,8.32
2022-11-07T07:54:27.707Z,8.32
2022-11-07T07:57:06.423Z,8.37
2022-11-07T07:59:33.596Z,8.41
2022-11-07T08:02:11.731Z,8.39
2022-11-07T08:04:41.257Z,8.46
2022-11-07T08:07:11.291Z,8.47
2022-11-07T08:09:38.138Z,8.50
2022-11-07T08:12:10.816Z,8.51
2022-11-07T08:14:37.550Z,8.54
2022-11-07T08:17:04.440Z,8.58
2022-11-07T08:19:31.174Z,8.63
2022-11-07T08:22:01.120Z,8.59
2022-11-07T08:24:30.313Z,8.64
2022-11-07T08:26:57.169Z,8.65
2022-11-07T08:29:25.087Z,8.75
2022-11-07T08:31:56.492Z,8.77
2022-11-07T08:34:23.404Z,8.81
2022-11-07T08:36:53.048Z,8.81
2022-11-07T08:39:20.064Z,8.86
2022-11-07T08:41:47.980Z,8.91
2022-11-07T08:44:44.296Z,8.94
2022-11-07T08:47:18.699Z,8.99
2022-11-07T08:49:45.719Z,9.05
2022-11-07T08:52:12.434Z,9.07
2022-11-07T08:54:39.178Z,9.11
2022-11-07T08:57:05.957Z,9.12
2022-11-07T08:59:34.266Z,9.23
2022-11-07T09:02:44.708Z,9.24
2022-11-07T09:12:01.728Z,9.38
2022-11-07T09:14:28.916Z,9.38
2022-11-07T09:16:55.736Z,9.40
2022-11-07T09:19:25.078Z,9.38
2022-11-07T09:21:51.810Z,9.41
2022-11-07T09:24:18.600Z,9.46
2022-11-07T09:26:50.183Z,9.47
2022-11-07T09:29:16.968Z,9.48
2022-11-07T09:31:46.514Z,9.51
2022-11-07T09:34:16.202Z,9.58
2022-11-07T09:36:45.602Z,9.61
2022-11-07T09:39:12.452Z,9.64
2022-11-07T09:42:01.105Z,9.68
2022-11-07T09:45:02.903Z,9.66
2022-11-07T09:47:37.279Z,9.71
2022-11-07T09:50:13.873Z,9.76
2022-11-07T09:53:30.379Z,9.86
2022-11-07T09:56:45.929Z,9.87
2022-11-07T09:59:32.366Z,9.95
2022-11-07T10:01:59.307Z,9.98
2022-11-07T10:04:29.143Z,10.04
2022-11-07T10:07:10.872Z,10.13
2022-11-07T10:10:14.027Z,10.18
2022-11-07T10:13:05.392Z,10.25
2022-11-07T10:16:02.082Z,10.22
2022-11-07T10:19:04.734Z,10.30
2022-11-07T10:21:50.272Z,10.39
2022-11-07T10:24:30.885Z,10.50
2022-11-07T10:27:01.267Z,10.48
2022-11-07T10:29:47.987Z,10.64
2022-11-07T10:32:22.428Z,10.73
2022-11-07T10:35:08.445Z,10.84
2022-11-07T10:37:36.435Z,10.98
2022-11-07T10:40:11.904Z,11.06
2022-11-07T10:42:38.744Z,11.11
2022-11-07T10:45:12.280Z,11.22
2022-11-07T10:47:39.802Z,11.27
2022-11-07T10:50:18.927Z,11.22
2022-11-07T10:52:53.593Z,11.28
2022-11-07T10:55:21.083Z,11.27
2022-11-07T10:57:53.033Z,11.28
2022-11-07T11:00:29.531Z,11.27
2022-11-07T11:03:00.115Z,11.35
2022-11-07T11:05:42.330Z,11.42
2022-11-07T11:08:21.005Z,11.46
2022-11-07T11:10:48.921Z,11.49
2022-11-07T11:13:29.522Z,11.44
2022-11-07T11:16:05.537Z,11.48
2022-11-07T11:18:33.079Z,11.49
2022-11-07T11:21:06.596Z,11.54
2022-11-07T11:23:45.438Z,11.62
2022-11-07T11:26:35.789Z,11.66
2022-11-07T11:29:18.005Z,11.74
2022-11-07T11:31:56.643Z,11.80
2022-11-07T11:34:42.328Z,11.87
2022-11-07T11:37:18.233Z,12.03
2022-11-07T11:40:20.625Z,12.11
2022-11-07T11:43:20.036Z,12.18
2022-11-07T11:46:05.787Z,12.29
2022-11-07T11:48:43.801Z,12.24
2022-11-07T11:51:26.906Z,12.25
2022-11-07T11:54:01.817Z,12.27
2022-11-07T11:56:38.187Z,12.29
2022-11-07T11:59:09.492Z,12.30
2022-11-07T12:02:06.448Z,12.27
2022-11-07T12:04:51.500Z,12.33
2022-11-07T12:07:37.279Z,12.39
2022-11-07T12:10:24.165Z,12.62
2022-11-07T12:12:54.822Z,12.77
2022-11-07T12:15:31.387Z,12.88
2022-11-07T12:18:08.271Z,12.87
2022-11-07T12:20:48.502Z,12.84
2022-11-07T12:23:45.311Z,12.83
2022-11-07T12:26:23.431Z,12.76
2022-11-07T12:29:17.545Z,12.82
2022-11-07T12:31:56.369Z,12.72
2022-11-07T12:34:35.315Z,12.70
2022-11-07T12:37:26.506Z,12.76
2022-11-07T12:40:02.423Z,12.80
2022-11-07T12:42:41.076Z,12.75
2022-11-07T12:45:17.011Z,12.83
2022-11-07T12:48:00.362Z,12.88
2022-11-07T12:50:38.376Z,12.97
2022-11-07T12:53:11.919Z,12.95
2022-11-07T12:55:57.008Z,12.90
2022-11-07T12:58:26.692Z,12.85
2022-11-07T13:00:54.885Z,12.83
2022-11-07T13:03:52.190Z,12.80
2022-11-07T13:06:23.936Z,12.75
2022-11-07T13:09:14.984Z,12.77
2022-11-07T13:11:52.986Z,12.72
2022-11-07T13:14:25.988Z,12.70
2022-11-07T13:17:05.766Z,12.59
2022-11-07T13:19:34.989Z,12.59
2022-11-07T13:22:21.311Z,12.50
2022-11-07T13:25:13.455Z,12.48
2022-11-07T13:27:47.759Z,12.44
2022-11-07T13:30:18.516Z,12.45
2022-11-07T13:32:46.174Z,12.39
2022-11-07T13:35:25.296Z,12.33
2022-11-07T13:38:11.400Z,12.37
2022-11-07T13:40:40.338Z,12.34
2022-11-07T13:43:24.136Z,12.33
2022-11-07T13:45:55.740Z,12.28
2022-11-07T13:48:47.027Z,12.26
2022-11-07T13:51:33.690Z,12.21
2022-11-07T13:54:21.055Z,12.14
2022-11-07T13:56:52.201Z,12.16
2022-11-07T13:59:30.330Z,12.14
2022-11-07T14:01:59.397Z,12.15
2022-11-07T14:04:28.821Z,12.16
2022-11-07T14:06:57.908Z,12.18
2022-11-07T14:09:25.293Z,12.14
2022-11-07T14:11:53.382Z,12.14
2022-11-07T14:14:24.969Z,12.13
2022-11-07T14:16:56.136Z,12.13
2022-11-07T14:19:27.391Z,12.11
2022-11-07T14:21:55.744Z,12.12
2022-11-07T14:29:05.338Z,12.02
2022-11-07T14:31:36.840Z,12.04
2022-11-07T14:34:15.504Z,12.06
2022-11-07T14:36:59.869Z,12.02
2022-11-07T14:39:29.414Z,12.04
2022-11-07T14:41:57.354Z,12.00
2022-11-07T14:44:53.232Z,11.97
2022-11-07T14:47:22.678Z,11.95
2022-11-07T14:49:50.598Z,11.92
2022-11-07T14:52:18.493Z,11.95
2022-11-07T14:54:45.999Z,11.92
2022-11-07T14:57:13.428Z,11.85
2022-11-07T14:59:41.225Z,11.84
2022-11-07T15:02:08.051Z,11.84
2022-11-07T15:04:34.786Z,11.84
2022-11-07T15:07:20.475Z,11.78
2022-11-07T15:09:47.376Z,11.75
2022-11-07T15:12:38.484Z,11.71
2022-11-07T15:15:12.268Z,11.71
2022-11-07T15:17:45.583Z,11.75
2022-11-07T15:20:30.772Z,11.71
2022-11-07T15:22:58.710Z,11.71
2022-11-07T15:25:34.538Z,11.70
2022-11-07T15:28:24.750Z,11.68
2022-11-07T15:30:54.335Z,11.69
2022-11-07T15:33:21.685Z,11.70
2022-11-07T15:35:51.133Z,11.69
2022-11-07T15:38:20.653Z,11.69
2022-11-07T15:40:48.075Z,11.69
2022-11-07T15:43:14.819Z,11.75
2022-11-07T15:45:42.390Z,11.76
2022-11-07T15:48:15.019Z,11.78
2022-11-07T15:50:43.257Z,11.76
2022-11-07T15:53:21.683Z,11.75
2022-11-07T15:55:51.291Z,11.72
2022-11-07T15:58:18.787Z,11.72
2022-11-07T16:00:45.654Z,11.72
2022-11-07T16:03:15.467Z,11.72
2022-11-07T16:05:47.112Z,11.73
2022-11-07T16:08:17.950Z,11.73
2022-11-07T16:10:54.107Z,11.75
2022-11-07T16:13:20.857Z,11.68
2022-11-07T16:15:50.298Z,11.72
2022-11-07T16:18:19.790Z,11.74
2022-11-07T16:20:47.658Z,11.73
2022-11-07T16:23:14.938Z,11.73
2022-11-07T16:25:43.181Z,11.74
2022-11-07T16:28:22.911Z,11.71
2022-11-07T16:30:49.793Z,11.71
2022-11-07T16:33:17.039Z,11.68
2022-11-07T16:35:43.857Z,11.68
2022-11-07T16:38:19.070Z,11.70
2022-11-07T16:40:46.445Z,11.73
2022-11-07T16:43:13.609Z,11.74
2022-11-07T16:45:45.631Z,11.77
2022-11-07T16:48:25.506Z,11.74
2022-11-07T16:50:52.901Z,11.75
2022-11-07T16:53:20.212Z,11.78
2022-11-07T16:55:53.253Z,11.77
2022-11-07T16:58:29.120Z,11.78
2022-11-07T17:00:58.087Z,11.78
2022-11-07T17:03:26.454Z,11.79
2022-11-07T17:05:54.990Z,11.74
2022-11-07T17:08:23.960Z,11.75
2022-11-07T17:10:51.044Z,11.68
2022-11-07T17:13:18.022Z,11.65
2022-11-07T17:15:44.811Z,11.62
2022-11-07T17:18:22.505Z,11.57
2022-11-07T17:20:51.672Z,11.54
2022-11-07T17:23:23.969Z,11.51
2022-11-07T17:25:54.288Z,11.49
2022-11-07T17:28:21.572Z,11.45
2022-11-07T17:30:48.300Z,11.43
2022-11-07T17:33:14.995Z,11.40
2022-11-07T17:35:41.836Z,11.32
2022-11-07T17:38:16.495Z,11.35
2022-11-07T17:40:43.664Z,11.34
2022-11-07T17:43:10.498Z,11.31
2022-11-07T17:45:37.630Z,11.29
2022-11-07T17:48:04.381Z,11.25
2022-11-07T17:50:31.119Z,11.24
2022-11-07T17:52:57.826Z,11.22
2022-11-07T17:55:25.626Z,11.23
2022-11-07T17:57:52.454Z,11.19
2022-11-07T18:00:21.794Z,11.17
2022-11-07T18:02:50.169Z,11.18
2022-11-07T18:05:19.330Z,11.18
2022-11-07T18:07:46.502Z,11.17
2022-11-07T18:10:15.478Z,11.20
2022-11-07T18:12:42.685Z,11.22
2022-11-07T18:15:12.865Z,11.22
2022-11-07T18:17:40.628Z,11.26
2022-11-07T18:20:09.370Z,11.25
2022-11-07T18:22:37.344Z,11.26
2022-11-07T18:25:08.143Z,11.30
2022-11-07T18:27:35.342Z,11.30
2022-11-07T18:30:03.115Z,11.32
2022-11-07T18:32:34.621Z,11.31
2022-11-07T18:35:04.521Z,11.34
2022-11-07T18:37:31.325Z,11.34
2022-11-07T18:39:58.829Z,11.33
2022-11-07T18:42:25.588Z,11.34
2022-11-07T18:44:52.261Z,11.37
2022-11-07T18:47:21.196Z,11.39
2022-11-07T18:49:51.484Z,11.39
2022-11-07T18:52:20.911Z,11.41
2022-11-07T18:54:47.559Z,11.37
2022-11-07T18:57:14.870Z,11.39
2022-11-07T18:59:41.520Z,11.40
2022-11-07T19:02:09.061Z,11.35
2022-11-07T19:04:35.779Z,11.32
2022-11-07T19:07:02.509Z,11.32
2022-11-07T19:09:30.893Z,11.31
2022-11-07T19:11:58.823Z,11.27
2022-11-07T19:14:26.646Z,11.25
2022-11-07T19:16:53.397Z,11.27
2022-11-07T19:19:20.119Z,11.27
2022-11-07T19:21:46.777Z,11.29
2022-11-07T19:24:13.482Z,11.27
2022-11-07T19:26:40.568Z,11.25
2022-11-07T19:29:12.760Z,11.24
2022-11-07T19:31:39.495Z,11.24
2022-11-07T19:34:06.412Z,11.23
2022-11-07T19:36:33.504Z,11.21
2022-11-07T19:39:00.378Z,11.19
2022-11-07T19:41:27.058Z,11.21
2022-11-07T19:43:53.788Z,11.19
2022-11-07T19:46:22.270Z,11.18
2022-11-07T19:48:49.941Z,11.16
2022-11-07T19:51:21.983Z,11.16
2022-11-07T19:53:58.339Z,11.14
2022-11-07T19:56:27.503Z,11.17
2022-11-07T19:58:54.756Z,11.15
2022-11-07T20:01:25.004Z,11.13
2022-11-07T20:03:52.761Z,11.10
2022-11-07T20:06:25.972Z,11.11
2022-11-07T20:08:52.807Z,11.08
2022-11-07T20:11:22.573Z,11.08
2022-11-07T20:13:49.287Z,11.05
2022-11-07T20:16:16.126Z,11.06
2022-11-07T20:18:45.382Z,11.10
2022-11-07T20:21:18.396Z,11.14
2022-11-07T20:23:46.032Z,11.12
2022-11-07T20:26:15.328Z,11.12
2022-11-07T20:28:42.276Z,11.13
2022-11-07T20:31:10.498Z,11.15
2022-11-07T20:33:37.395Z,11.14
2022-11-07T20:36:06.932Z,11.15
2022-11-07T20:38:33.931Z,11.16
2022-11-07T20:41:02.266Z,11.15
2022-11-07T22:54:15.657Z,10.75
2022-11-07T23:26:39.860Z,10.54
